SOHO CELIAS Proton Monitor
Solar Wind Parameters for Carrington Rotation 1985 (hour averages)


Listed Parameters:

Measurement time (Year, Day of Year, Hour, Minute, Second)
Proton speed [km/sec]
Proton density [protons per cubic centimeter]
Most probable proton thermal speed [km/sec]
Arrival direction [degrees from north-south, with + meaning FROM the south).
(SPEED=-1 means NOT AVAILABLE)

SOHO spacecraft coordinates: based on SOHO PRE orbit files
GSE X, Y, Z [Earth Radii] 1 RE == 6378 km
Heliocentric Range [106 km],
Heliographic Latitude and Longitude [deg].

FORMAT=(1X,I2,1X,I3,1X,I2,1X,I2,1X,I2,F7.1,3F7.2,3X,3F7.1,F7.1,F7.2,F8.2)



                              CELIAS/MTOF/PM DATA                      SOHO ORBIT DATA              
 InSitu_Start__Time       [km/s]  [cm-3] [km/s]  [deg]      [Re]   [Re]   [Re]  [Mkm]  [deg]  [deg]
 YY MON DY DOY:HH:MM:SS   SPEED     Np     Vth    N/S      GSE_X  GSE_Y  GSE_Z  RANGE  HGLAT  HGLONG
 02 JAN  7   7:01:00:00     325    8.5      24   -2.2      194.2  -43.6   14.9  145.9   -3.7   360.0
 02 JAN  7   7:02:00:00     340    9.7      26   -1.9      194.2  -43.4   14.9  145.9   -3.7   359.5
 02 JAN  7   7:03:00:00     347   11.6      28   -1.5      194.2  -43.3   15.0  145.9   -3.7   359.0
 02 JAN  7   7:04:00:00     346   14.0      28   -2.3      194.2  -43.1   15.0  145.9   -3.7   358.4
 02 JAN  7   7:05:00:00     342   11.3      26   -0.6      194.2  -43.0   15.0  145.9   -3.7   357.9
 02 JAN  7   7:06:00:00     341   10.7      25    0.5      194.2  -42.8   15.0  145.9   -3.7   357.3
 02 JAN  7   7:07:00:00     338   10.5      25    0.4      194.2  -42.7   15.0  145.9   -3.7   356.8
 02 JAN  7   7:08:00:00     337   11.2      25    1.0      194.2  -42.5   15.0  145.9   -3.7   356.2
 02 JAN  7   7:09:00:00     335   14.0      24    0.9      194.2  -42.4   15.0  145.9   -3.7   355.7
 02 JAN  7   7:10:00:00     341   18.9      25   -1.7      194.2  -42.2   15.1  145.9   -3.7   355.1
 02 JAN  7   7:11:00:00     348   18.6      24   -2.4      194.2  -42.1   15.1  145.9   -3.7   354.6
 02 JAN  7   7:12:00:00     348   12.8      23   -2.3      194.2  -41.9   15.1  145.9   -3.7   354.0
 02 JAN  7   7:13:00:00     345   11.4      24   -2.7      194.2  -41.8   15.1  145.9   -3.7   353.5
 02 JAN  7   7:14:00:00     343   10.8      24   -2.3      194.2  -41.6   15.1  145.9   -3.7   352.9
 02 JAN  7   7:15:00:00     354   15.7      24   -0.1      194.2  -41.5   15.1  145.9   -3.7   352.4
 02 JAN  7   7:16:00:00     345   14.4      24    0.2      194.2  -41.3   15.1  145.9   -3.8   351.8
 02 JAN  7   7:17:00:00     354   15.2      28   -0.9      194.2  -41.2   15.2  145.9   -3.8   351.3
 02 JAN  7   7:18:00:00     361   15.5      30    1.2      194.2  -41.0   15.2  145.9   -3.8   350.7
 02 JAN  7   7:19:00:00     367   19.1      26    1.0      194.2  -40.9   15.2  145.9   -3.8   350.2
 02 JAN  7   7:20:00:00     377   18.6      27    5.9      194.2  -40.7   15.2  145.9   -3.8   349.6
 02 JAN  7   7:21:00:00     378    7.1      31    1.1      194.2  -40.5   15.2  145.9   -3.8   349.1
 02 JAN  7   7:22:00:00     372    5.5      30   -0.7      194.2  -40.4   15.2  145.9   -3.8   348.5
 02 JAN  7   7:23:00:00     376    8.3      29   -1.1      194.2  -40.2   15.2  145.9   -3.8   348.0
 02 JAN  8   8:00:00:00     381    6.2      31   -0.7      194.2  -40.1   15.2  145.9   -3.8   347.4
 02 JAN  8   8:01:00:00     385   13.7      35    1.2      194.2  -39.9   15.3  145.9   -3.8   346.9
 02 JAN  8   8:02:00:00     380   14.7      35    1.2      194.2  -39.8   15.3  145.9   -3.8   346.3
 02 JAN  8   8:03:00:00     369    8.0      31   -1.6      194.2  -39.6   15.3  145.9   -3.8   345.8
 02 JAN  8   8:04:00:00     364   10.8      27   -3.8      194.2  -39.5   15.3  145.9   -3.8   345.2
 02 JAN  8   8:05:00:00     379   19.9      34   -2.9      194.2  -39.3   15.3  145.9   -3.8   344.7
 02 JAN  8   8:06:00:00     367   13.8      30   -3.7      194.2  -39.2   15.3  145.9   -3.8   344.1
 02 JAN  8   8:07:00:00     365   12.0      28   -5.7      194.2  -39.0   15.3  145.9   -3.8   343.6
 02 JAN  8   8:08:00:00     360    9.6      28   -4.2      194.2  -38.9   15.3  145.9   -3.8   343.0
 02 JAN  8   8:09:00:00     364    9.2      29   -3.4      194.2  -38.7   15.4  145.9   -3.8   342.5
 02 JAN  8   8:10:00:00     376    9.9      33   -5.1      194.2  -38.5   15.4  145.9   -3.8   341.9
 02 JAN  8   8:11:00:00     388    5.4      42   -2.3      194.2  -38.4   15.4  145.9   -3.8   341.4
 02 JAN  8   8:12:00:00     410    3.8      48   -1.5      194.2  -38.2   15.4  145.9   -3.8   340.8
 02 JAN  8   8:13:00:00     424    4.4      52   -2.1      194.2  -38.1   15.4  145.9   -3.8   340.2
 02 JAN  8   8:14:00:00     430    5.4      51   -2.3      194.2  -37.9   15.4  145.9   -3.8   339.7
 02 JAN  8   8:15:00:00     437    6.1      48   -1.8      194.2  -37.8   15.4  145.9   -3.9   339.1
 02 JAN  8   8:16:00:00     418    7.2      44   -3.9      194.2  -37.6   15.4  145.9   -3.9   338.6
 02 JAN  8   8:17:00:00     417    6.4      45   -4.0      194.2  -37.5   15.5  145.9   -3.9   338.0
 02 JAN  8   8:18:00:00     389    5.3      44   -3.1      194.2  -37.3   15.5  145.9   -3.9   337.5
 02 JAN  8   8:19:00:00     357    7.0      37   -2.2      194.2  -37.1   15.5  145.9   -3.9   336.9
 02 JAN  8   8:20:00:00     346    7.5      33   -2.0      194.2  -37.0   15.5  145.9   -3.9   336.4
 02 JAN  8   8:21:00:00     345    6.9      33   -0.2      194.2  -36.8   15.5  145.9   -3.9   335.8
 02 JAN  8   8:22:00:00     343    7.6      32   -0.4      194.2  -36.7   15.5  145.9   -3.9   335.3
 02 JAN  8   8:23:00:00     336    7.1      28   -1.6      194.2  -36.5   15.5  145.9   -3.9   334.7
 02 JAN  9   9:00:00:00     333    7.0      27   -1.8      194.2  -36.4   15.5  145.9   -3.9   334.2
 02 JAN  9   9:01:00:00     333    8.8      26   -3.2      194.2  -36.2   15.5  145.9   -3.9   333.6
 02 JAN  9   9:02:00:00     332    7.7      26   -2.1      194.2  -36.0   15.6  145.9   -3.9   333.1
 02 JAN  9   9:03:00:00     338    5.8      31   -1.5      194.2  -35.9   15.6  145.9   -3.9   332.5
 02 JAN  9   9:04:00:00     337    7.5      31   -1.2      194.2  -35.7   15.6  145.9   -3.9   332.0
 02 JAN  9   9:05:00:00     347    5.3      29   -2.2      194.2  -35.6   15.6  145.9   -3.9   331.4
 02 JAN  9   9:06:00:00     340    5.0      27   -1.7      194.2  -35.4   15.6  145.9   -3.9   330.9
 02 JAN  9   9:07:00:00     342    5.2      27   -2.9      194.2  -35.3   15.6  145.9   -3.9   330.3
 02 JAN  9   9:08:00:00     339    5.7      28    0.1      194.2  -35.1   15.6  145.9   -3.9   329.8
 02 JAN  9   9:09:00:00     340    6.6      29   -2.9      194.2  -34.9   15.6  145.9   -3.9   329.2
 02 JAN  9   9:10:00:00     334    5.7      26   -0.6      194.2  -34.8   15.6  145.9   -3.9   328.7
 02 JAN  9   9:11:00:00     334    5.5      25    2.1      194.2  -34.6   15.7  145.9   -3.9   328.1
 02 JAN  9   9:12:00:00     338    6.1      28   -1.5      194.2  -34.5   15.7  145.9   -3.9   327.6
 02 JAN  9   9:13:00:00     340    6.8      28    3.8      194.2  -34.3   15.7  145.9   -4.0   327.0
 02 JAN  9   9:14:00:00     342    6.2      29    1.6      194.2  -34.1   15.7  145.9   -4.0   326.5
 02 JAN  9   9:15:00:00     368    8.6      33    3.4      194.2  -34.0   15.7  145.9   -4.0   325.9
 02 JAN  9   9:16:00:00     355    4.8      32    1.7      194.2  -33.8   15.7  145.9   -4.0   325.4
 02 JAN  9   9:17:00:00     351    4.9      29    0.3      194.2  -33.7   15.7  145.9   -4.0   324.8
 02 JAN  9   9:18:00:00     366    6.2      32    1.8      194.2  -33.5   15.7  145.9   -4.0   324.3
 02 JAN  9   9:19:00:00     346    5.4      28    3.1      194.2  -33.3   15.7  145.9   -4.0   323.7
 02 JAN  9   9:20:00:00     338    6.3      27    3.3      194.2  -33.2   15.8  145.9   -4.0   323.2
 02 JAN  9   9:21:00:00     336    6.9      25    3.5      194.2  -33.0   15.8  145.9   -4.0   322.6
 02 JAN  9   9:22:00:00     343    6.6      27    2.6      194.2  -32.9   15.8  145.9   -4.0   322.1
 02 JAN  9   9:23:00:00     344   10.8      32    1.4      194.2  -32.7   15.8  145.9   -4.0   321.5
 02 JAN 10  10:00:00:00     355    9.1      34    2.3      194.2  -32.5   15.8  145.9   -4.0   321.0
 02 JAN 10  10:01:00:00     355   11.3      34    2.4      194.2  -32.4   15.8  145.9   -4.0   320.4
 02 JAN 10  10:02:00:00     352   15.2      32   -2.9      194.2  -32.2   15.8  145.9   -4.0   319.9
 02 JAN 10  10:03:00:00     355   13.9      34   -0.8      194.2  -32.1   15.8  145.9   -4.0   319.3
 02 JAN 10  10:04:00:00     374   10.9      34   -0.1      194.2  -31.9   15.8  145.9   -4.0   318.8
 02 JAN 10  10:05:00:00     382   15.2      38    0.0      194.2  -31.7   15.8  145.9   -4.0   318.2
 02 JAN 10  10:06:00:00     385   15.4      32    0.3      194.2  -31.6   15.9  145.9   -4.0   317.7
 02 JAN 10  10:07:00:00     399   14.8      34    1.8      194.2  -31.4   15.9  145.9   -4.0   317.1
 02 JAN 10  10:08:00:00     401   15.2      34    1.5      194.2  -31.2   15.9  145.9   -4.0   316.6
 02 JAN 10  10:09:00:00     416   14.9      36    1.1      194.2  -31.1   15.9  145.9   -4.0   316.0
 02 JAN 10  10:10:00:00     418   13.3      36    0.9      194.2  -30.9   15.9  145.9   -4.0   315.5
 02 JAN 10  10:11:00:00     432   13.7      42   -0.5      194.2  -30.8   15.9  145.9   -4.0   314.9
 02 JAN 10  10:12:00:00     457   11.1      53   -1.4      194.2  -30.6   15.9  145.9   -4.1   314.4
 02 JAN 10  10:13:00:00     477   10.0      57    0.9      194.2  -30.4   15.9  145.9   -4.1   313.8
 02 JAN 10  10:14:00:00     481   10.1      59    1.8      194.2  -30.3   15.9  145.9   -4.1   313.3
 02 JAN 10  10:15:00:00     524   11.4      66    3.0      194.2  -30.1   15.9  145.9   -4.1   312.7
 02 JAN 10  10:16:00:00     628   19.4      69    3.9      194.2  -30.0   16.0  145.9   -4.1   312.2
 02 JAN 10  10:17:00:00     624   14.3      66    5.5      194.2  -29.8   16.0  145.9   -4.1   311.6
 02 JAN 10  10:18:00:00     623   14.2      63    4.3      194.2  -29.6   16.0  145.9   -4.1   311.1
 02 JAN 10  10:19:00:00     613   12.3      59    2.2      194.1  -29.5   16.0  145.9   -4.1   310.5
 02 JAN 10  10:20:00:00     620    9.9      59    0.2      194.1  -29.3   16.0  145.9   -4.1   310.0
 02 JAN 10  10:21:00:00     634    7.0      62   -0.5      194.1  -29.1   16.0  145.9   -4.1   309.4
 02 JAN 10  10:22:00:00     616    8.4      60   -1.0      194.1  -29.0   16.0  145.9   -4.1   308.9
 02 JAN 10  10:23:00:00     593   14.3      56    0.9      194.1  -28.8   16.0  145.9   -4.1   308.3
 02 JAN 11  11:00:00:00     615   15.4      62    0.5      194.1  -28.6   16.0  145.9   -4.1   307.8
 02 JAN 11  11:01:00:00     621   13.0      68   -0.9      194.1  -28.5   16.0  145.9   -4.1   307.2
 02 JAN 11  11:02:00:00     620   10.2      60    0.5      194.1  -28.3   16.0  145.9   -4.1   306.7
 02 JAN 11  11:03:00:00     621    9.5      57    0.7      194.1  -28.2   16.1  145.9   -4.1   306.1
 02 JAN 11  11:04:00:00     645    8.2      59    1.9      194.1  -28.0   16.1  145.9   -4.1   305.6
 02 JAN 11  11:05:00:00     609    7.5      53   -0.2      194.1  -27.8   16.1  145.9   -4.1   305.0
 02 JAN 11  11:06:00:00     599    6.5      51   -0.6      194.1  -27.7   16.1  145.9   -4.1   304.5
 02 JAN 11  11:07:00:00     596    6.1      50    0.2      194.1  -27.5   16.1  145.9   -4.1   303.9
 02 JAN 11  11:08:00:00     601    6.2      51    0.7      194.1  -27.3   16.1  145.9   -4.1   303.4
 02 JAN 11  11:09:00:00     595    6.7      48    2.0      194.1  -27.2   16.1  145.9   -4.1   302.8
 02 JAN 11  11:10:00:00     591    5.5      48   -0.8      194.1  -27.0   16.1  145.9   -4.1   302.3
 02 JAN 11  11:11:00:00     599    4.9      51    0.4      194.1  -26.8   16.1  145.9   -4.2   301.7
 02 JAN 11  11:12:00:00     596    4.4      50    0.1      194.1  -26.7   16.1  145.9   -4.2   301.2
 02 JAN 11  11:13:00:00     595    4.2      48    0.6      194.1  -26.5   16.1  145.9   -4.2   300.6
 02 JAN 11  11:14:00:00     599    4.8      49    0.0      194.1  -26.3   16.1  145.9   -4.2   300.1
 02 JAN 11  11:15:00:00     598    5.9      47    1.7      194.1  -26.2   16.2  145.9   -4.2   299.5
 02 JAN 11  11:16:00:00     599    5.8      47    2.1      194.1  -26.0   16.2  145.9   -4.2   299.0
 02 JAN 11  11:17:00:00     592    5.9      46    1.4      194.1  -25.9   16.2  145.9   -4.2   298.4
 02 JAN 11  11:18:00:00     590    5.6      46    0.3      194.1  -25.7   16.2  145.9   -4.2   297.9
 02 JAN 11  11:19:00:00     596    6.1      45    1.2      194.1  -25.5   16.2  145.9   -4.2   297.3
 02 JAN 11  11:20:00:00     586    6.2      43    1.2      194.1  -25.4   16.2  145.9   -4.2   296.8
 02 JAN 11  11:21:00:00     584    4.7      46    0.4      194.1  -25.2   16.2  145.9   -4.2   296.2
 02 JAN 11  11:22:00:00     576    4.0      52   -0.4      194.1  -25.0   16.2  145.9   -4.2   295.7
 02 JAN 11  11:23:00:00     585    6.3      42    1.5      194.1  -24.9   16.2  145.9   -4.2   295.1
 02 JAN 12  12:00:00:00     579    7.2      40    1.7      194.1  -24.7   16.2  145.9   -4.2   294.6
 02 JAN 12  12:01:00:00     577    6.2      41    0.6      194.1  -24.5   16.2  145.9   -4.2   294.0
 02 JAN 12  12:02:00:00     575    7.0      39    1.6      194.1  -24.4   16.2  145.9   -4.2   293.5
 02 JAN 12  12:03:00:00     572    5.9      41    0.9      194.1  -24.2   16.3  145.9   -4.2   292.9
 02 JAN 12  12:04:00:00     573    6.1      39    1.0      194.1  -24.0   16.3  145.9   -4.2   292.4
 02 JAN 12  12:05:00:00     569    5.1      44    1.6      194.1  -23.9   16.3  145.9   -4.2   291.8
 02 JAN 12  12:06:00:00     572    5.2      44    1.4      194.1  -23.7   16.3  145.9   -4.2   291.3
 02 JAN 12  12:07:00:00     573    5.4      43    1.2      194.1  -23.5   16.3  145.9   -4.2   290.7
 02 JAN 12  12:08:00:00     571    5.6      45    0.8      194.1  -23.4   16.3  145.9   -4.2   290.2
 02 JAN 12  12:09:00:00     556    5.1      49    0.1      194.1  -23.2   16.3  145.9   -4.2   289.6
 02 JAN 12  12:10:00:00     539    6.0      51   -1.5      194.1  -23.0   16.3  145.9   -4.3   289.1
 02 JAN 12  12:11:00:00     551    6.6      48   -2.8      194.1  -22.9   16.3  145.9   -4.3   288.5
 02 JAN 12  12:12:00:00     557    5.9      47    0.1      194.1  -22.7   16.3  145.9   -4.3   288.0
 02 JAN 12  12:13:00:00     559    5.4      46   -2.6      194.1  -22.5   16.3  145.9   -4.3   287.4
 02 JAN 12  12:14:00:00     541    4.8      49   -1.4      194.1  -22.4   16.3  145.9   -4.3   286.9
 02 JAN 12  12:15:00:00     548    5.4      48    0.6      194.1  -22.2   16.3  145.9   -4.3   286.3
 02 JAN 12  12:16:00:00     534    5.3      48    0.3      194.1  -22.0   16.3  145.9   -4.3   285.8
 02 JAN 12  12:17:00:00     539    4.8      47    0.4      194.1  -21.9   16.4  145.9   -4.3   285.2
 02 JAN 12  12:18:00:00     543    4.6      46    0.5      194.1  -21.7   16.4  145.9   -4.3   284.7
 02 JAN 12  12:19:00:00     542    4.5      46    0.4      194.1  -21.5   16.4  145.9   -4.3   284.1
 02 JAN 12  12:20:00:00     545    4.6      46    0.2      194.1  -21.4   16.4  145.9   -4.3   283.6
 02 JAN 12  12:21:00:00     533    3.7      46    0.0      194.1  -21.2   16.4  145.9   -4.3   283.0
 02 JAN 12  12:22:00:00     539    3.7      47   -0.2      194.1  -21.0   16.4  145.9   -4.3   282.5
 02 JAN 12  12:23:00:00     529    3.5      46   -0.5      194.1  -20.9   16.4  145.9   -4.3   281.9
 02 JAN 13  13:00:00:00     536    4.0      47   -0.1      194.1  -20.7   16.4  145.9   -4.3   281.3
 02 JAN 13  13:01:00:00     544    3.5      46   -1.0      194.1  -20.5   16.4  145.9   -4.3   280.8
 02 JAN 13  13:02:00:00     512    4.9      44   -0.5      194.1  -20.4   16.4  145.9   -4.3   280.2
 02 JAN 13  13:03:00:00     524    5.8      47   -2.1      194.1  -20.2   16.4  145.9   -4.3   279.7
 02 JAN 13  13:04:00:00     524    5.0      45   -1.5      194.1  -20.0   16.4  145.9   -4.3   279.1
 02 JAN 13  13:05:00:00     523    5.5      45    0.4      194.1  -19.8   16.4  145.9   -4.3   278.6
 02 JAN 13  13:06:00:00     514    7.2      45    2.8      194.1  -19.7   16.4  145.9   -4.3   278.0
 02 JAN 13  13:07:00:00     528    5.7      46    1.5      194.1  -19.5   16.4  145.9   -4.3   277.5
 02 JAN 13  13:08:00:00     534    4.9      47    0.0      194.1  -19.3   16.4  145.9   -4.3   276.9
 02 JAN 13  13:09:00:00     527    5.7      47   -0.9      194.1  -19.2   16.5  145.9   -4.3   276.4
 02 JAN 13  13:10:00:00     504    7.0      43    0.3      194.1  -19.0   16.5  145.9   -4.4   275.8
 02 JAN 13  13:11:00:00     500    6.6      42    0.3      194.0  -18.8   16.5  145.9   -4.4   275.3
 02 JAN 13  13:12:00:00     496    6.4      41   -1.2      194.0  -18.7   16.5  145.9   -4.4   274.7
 02 JAN 13  13:13:00:00     499    6.9      42    0.4      194.0  -18.5   16.5  145.9   -4.4   274.2
 02 JAN 13  13:14:00:00     505    6.4      44    0.4      194.0  -18.3   16.5  145.9   -4.4   273.6
 02 JAN 13  13:15:00:00     522    5.7      46    0.2      194.0  -18.2   16.5  145.9   -4.4   273.1
 02 JAN 13  13:16:00:00     498    6.4      41   -0.1      194.0  -18.0   16.5  145.9   -4.4   272.5
 02 JAN 13  13:17:00:00     502    6.2      43   -0.6      194.0  -17.8   16.5  145.9   -4.4   272.0
 02 JAN 13  13:18:00:00     506    6.7      44   -0.5      194.0  -17.7   16.5  145.9   -4.4   271.4
 02 JAN 13  13:19:00:00     497    6.5      44    0.0      194.0  -17.5   16.5  145.9   -4.4   270.9
 02 JAN 13  13:20:00:00     494    6.5      40   -0.3      194.0  -17.3   16.5  145.9   -4.4   270.3
 02 JAN 13  13:21:00:00     490    7.1      39    1.4      194.0  -17.1   16.5  145.9   -4.4   269.8
 02 JAN 13  13:22:00:00     488    6.3      41    0.0      194.0  -17.0   16.5  145.9   -4.4   269.2
 02 JAN 13  13:23:00:00     484    6.7      38   -1.4      194.0  -16.8   16.5  145.9   -4.4   268.7
 02 JAN 14  14:00:00:00     495    6.0      39    0.6      194.0  -16.6   16.5  145.9   -4.4   268.1
 02 JAN 14  14:01:00:00     481    7.3      36    2.0      194.0  -16.5   16.5  145.9   -4.4   267.6
 02 JAN 14  14:02:00:00     478    6.3      36    0.3      194.0  -16.3   16.5  145.9   -4.4   267.0
 02 JAN 14  14:03:00:00     477    6.4      37    0.5      194.0  -16.1   16.6  145.9   -4.4   266.5
 02 JAN 14  14:04:00:00     479    5.6      42    0.7      194.0  -16.0   16.6  145.9   -4.4   265.9
 02 JAN 14  14:05:00:00     477    4.8      43   -0.8      194.0  -15.8   16.6  145.9   -4.4   265.4
 02 JAN 14  14:06:00:00     475    4.7      44   -0.4      194.0  -15.6   16.6  145.9   -4.4   264.8
 02 JAN 14  14:07:00:00     474    5.4      39   -0.5      194.0  -15.5   16.6  145.9   -4.4   264.3
 02 JAN 14  14:08:00:00     472    5.6      34   -1.3      194.0  -15.3   16.6  145.9   -4.4   263.7
 02 JAN 14  14:09:00:00     468    6.1      32   -0.4      194.0  -15.1   16.6  145.9   -4.4   263.2
 02 JAN 14  14:10:00:00     467    6.2      33   -0.8      194.0  -14.9   16.6  145.9   -4.5   262.6
 02 JAN 14  14:11:00:00     461    5.4      35    0.0      194.0  -14.8   16.6  145.9   -4.5   262.1
 02 JAN 14  14:12:00:00     451    4.5      38    0.0      194.0  -14.6   16.6  145.9   -4.5   261.5
 02 JAN 14  14:13:00:00     452    4.4      38   -0.9      194.0  -14.4   16.6  145.9   -4.5   261.0
 02 JAN 14  14:14:00:00     450    4.7      39    0.0      194.0  -14.3   16.6  145.9   -4.5   260.4
 02 JAN 14  14:15:00:00     455    4.6      35   -1.0      194.0  -14.1   16.6  145.9   -4.5   259.9
 02 JAN 14  14:16:00:00     457    4.8      33    1.3      194.0  -13.9   16.6  145.9   -4.5   259.3
 02 JAN 14  14:17:00:00     463    4.3      34    0.4      194.0  -13.8   16.6  145.9   -4.5   258.8
 02 JAN 14  14:18:00:00     440    4.3      44    0.3      194.0  -13.6   16.6  145.9   -4.5   258.2
 02 JAN 14  14:19:00:00     433    4.9      41   -0.1      194.0  -13.4   16.6  145.9   -4.5   257.7
 02 JAN 14  14:20:00:00     429    5.8      41   -0.1      194.0  -13.3   16.6  145.9   -4.5   257.1
 02 JAN 14  14:21:00:00     429    5.6      41    0.3      194.0  -13.1   16.6  145.9   -4.5   256.6
 02 JAN 14  14:22:00:00     430    6.1      41    0.5      194.0  -12.9   16.6  145.9   -4.5   256.0
 02 JAN 14  14:23:00:00     425    5.9      40    1.7      193.9  -12.7   16.6  145.9   -4.5   255.5
 02 JAN 15  15:00:00:00     426    5.6      40   -1.6      193.9  -12.6   16.6  145.9   -4.5   254.9
 02 JAN 15  15:01:00:00     425    4.9      39    0.2      193.9  -12.4   16.7  145.9   -4.5   254.4
 02 JAN 15  15:02:00:00     432    5.3      38    1.3      193.9  -12.2   16.7  145.9   -4.5   253.8
 02 JAN 15  15:03:00:00     446    4.6      40    1.6      193.9  -12.1   16.7  145.9   -4.5   253.3
 02 JAN 15  15:04:00:00     430    6.1      41    2.3      193.9  -11.9   16.7  145.9   -4.5   252.7
 02 JAN 15  15:05:00:00     431    5.8      39    2.3      193.9  -11.7   16.7  145.9   -4.5   252.2
 02 JAN 15  15:06:00:00     434    5.1      38    0.5      193.9  -11.6   16.7  145.9   -4.5   251.6
 02 JAN 15  15:07:00:00     436    5.5      37    1.0      193.9  -11.4   16.7  145.9   -4.5   251.1
 02 JAN 15  15:08:00:00     446    5.2      36   -2.3      193.9  -11.2   16.7  145.9   -4.5   250.5
 02 JAN 15  15:09:00:00     432    4.6      37    0.3      193.9  -11.0   16.7  145.9   -4.5   250.0
 02 JAN 15  15:10:00:00     419    5.4      37    1.0      193.9  -10.9   16.7  145.9   -4.6   249.4
 02 JAN 15  15:11:00:00     414    6.3      35    2.8      193.9  -10.7   16.7  145.9   -4.6   248.9
 02 JAN 15  15:12:00:00     431    4.7      37    0.9      193.9  -10.5   16.7  145.9   -4.6   248.3
 02 JAN 15  15:13:00:00     415    6.3      35    1.9      193.9  -10.4   16.7  145.9   -4.6   247.8
 02 JAN 15  15:14:00:00     423    4.2      35    1.1      193.9  -10.2   16.7  145.9   -4.6   247.2
 02 JAN 15  15:15:00:00     413    5.7      35    1.6      193.9  -10.0   16.7  145.9   -4.6   246.7
 02 JAN 15  15:16:00:00     413    7.0      35    2.6      193.9   -9.8   16.7  145.9   -4.6   246.1
 02 JAN 15  15:17:00:00     403    6.8      32    1.7      193.9   -9.7   16.7  145.9   -4.6   245.6
 02 JAN 15  15:18:00:00     409    5.6      34    0.5      193.9   -9.5   16.7  145.9   -4.6   245.0
 02 JAN 15  15:19:00:00     393    6.7      30    0.8      193.9   -9.3   16.7  145.9   -4.6   244.5
 02 JAN 15  15:20:00:00     392    7.7      30    1.4      193.9   -9.2   16.7  145.9   -4.6   243.9
 02 JAN 15  15:21:00:00     392    6.9      29    1.5      193.9   -9.0   16.7  145.9   -4.6   243.4
 02 JAN 15  15:22:00:00     393    6.3      30    1.1      193.9   -8.8   16.7  145.9   -4.6   242.8
 02 JAN 15  15:23:00:00     390    7.2      29    1.7      193.9   -8.7   16.7  145.9   -4.6   242.3
 02 JAN 16  16:00:00:00     391    7.4      29    2.2      193.9   -8.5   16.7  145.9   -4.6   241.7
 02 JAN 16  16:01:00:00     391    9.1      28    0.5      193.9   -8.3   16.7  145.9   -4.6   241.2
 02 JAN 16  16:02:00:00     397    5.5      34    0.1      193.9   -8.1   16.7  145.9   -4.6   240.6
 02 JAN 16  16:03:00:00     393    6.5      33    1.7      193.9   -8.0   16.7  145.9   -4.6   240.1
 02 JAN 16  16:04:00:00     389    6.8      32    1.8      193.8   -7.8   16.7  145.9   -4.6   239.5
 02 JAN 16  16:05:00:00     377    6.6      27    2.1      193.8   -7.6   16.7  145.9   -4.6   239.0
 02 JAN 16  16:06:00:00     373    7.4      26    2.4      193.8   -7.5   16.7  145.9   -4.6   238.4
 02 JAN 16  16:07:00:00     379    8.4      30    3.3      193.8   -7.3   16.7  145.9   -4.6   237.9
 02 JAN 16  16:08:00:00     372    8.6      31    3.4      193.8   -7.1   16.8  145.9   -4.6   237.3
 02 JAN 16  16:09:00:00     364    7.6      30    2.8      193.8   -7.0   16.8  145.9   -4.6   236.8
 02 JAN 16  16:10:00:00     364    7.5      30    2.7      193.8   -6.8   16.8  145.9   -4.7   236.2
 02 JAN 16  16:11:00:00     372    6.5      33    1.5      193.8   -6.6   16.8  145.9   -4.7   235.7
 02 JAN 16  16:12:00:00     377    8.0      29   -0.1      193.8   -6.4   16.8  145.9   -4.7   235.1
 02 JAN 16  16:13:00:00     373    6.3      33    0.9      193.8   -6.3   16.8  145.9   -4.7   234.6
 02 JAN 16  16:14:00:00     372    6.6      33    0.7      193.8   -6.1   16.8  145.9   -4.7   234.0
 02 JAN 16  16:15:00:00     371    8.1      27   -1.2      193.8   -5.9   16.8  145.9   -4.7   233.5
 02 JAN 16  16:16:00:00     374    8.0      26   -1.7      193.8   -5.8   16.8  145.9   -4.7   232.9
 02 JAN 16  16:17:00:00     375    7.4      31   -0.3      193.8   -5.6   16.8  145.9   -4.7   232.4
 02 JAN 16  16:18:00:00     368    7.3      27   -1.9      193.8   -5.4   16.8  145.9   -4.7   231.8
 02 JAN 16  16:19:00:00     371    8.4      27   -1.9      193.8   -5.3   16.8  145.9   -4.7   231.3
 02 JAN 16  16:20:00:00     367    8.3      26   -0.9      193.8   -5.1   16.8  145.9   -4.7   230.7
 02 JAN 16  16:21:00:00     374    8.1      30   -0.5      193.8   -4.9   16.8  145.9   -4.7   230.2
 02 JAN 16  16:22:00:00     362    9.0      28    1.2      193.8   -4.7   16.8  145.9   -4.7   229.6
 02 JAN 16  16:23:00:00     361   11.7      28    3.5      193.8   -4.6   16.8  145.9   -4.7   229.1
 02 JAN 17  17:00:00:00     363    9.3      32    3.0      193.8   -4.4   16.8  145.9   -4.7   228.5
 02 JAN 17  17:01:00:00     360    7.2      34    1.8      193.8   -4.2   16.8  145.9   -4.7   228.0
 02 JAN 17  17:02:00:00     359    7.4      32    1.4      193.8   -4.1   16.8  145.9   -4.7   227.4
 02 JAN 17  17:03:00:00     359    5.9      33    1.7      193.8   -3.9   16.8  145.9   -4.7   226.9
 02 JAN 17  17:04:00:00     355    6.8      30    1.8      193.8   -3.7   16.8  145.9   -4.7   226.3
 02 JAN 17  17:05:00:00     363    9.0      29    1.5      193.8   -3.5   16.8  145.9   -4.7   225.8
 02 JAN 17  17:06:00:00     392   12.9      36    2.2      193.7   -3.4   16.8  145.9   -4.7   225.2
 02 JAN 17  17:07:00:00     392   13.0      37    0.7      193.7   -3.2   16.8  145.9   -4.7   224.7
 02 JAN 17  17:08:00:00     393   14.1      39    2.5      193.7   -3.0   16.8  145.9   -4.7   224.1
 02 JAN 17  17:09:00:00     393   13.7      39    2.2      193.7   -2.9   16.8  145.9   -4.7   223.6
 02 JAN 17  17:10:00:00     397   14.5      40    2.6      193.7   -2.7   16.8  145.9   -4.7   223.0
 02 JAN 17  17:11:00:00     390   16.0      37    3.3      193.7   -2.5   16.8  145.9   -4.8   222.5
 02 JAN 17  17:12:00:00     392   15.2      37    3.3      193.7   -2.4   16.8  145.9   -4.8   221.9
 02 JAN 17  17:13:00:00     395   14.4      36    3.1      193.7   -2.2   16.8  145.9   -4.8   221.4
 02 JAN 17  17:14:00:00     396   11.4      37    1.8      193.7   -2.0   16.8  145.9   -4.8   220.8
 02 JAN 17  17:15:00:00     395   11.8      36    1.1      193.7   -1.8   16.8  145.9   -4.8   220.2
 02 JAN 17  17:16:00:00     406   10.6      37   -0.6      193.7   -1.7   16.8  145.9   -4.8   219.7
 02 JAN 17  17:17:00:00     410   10.6      36    0.6      193.7   -1.5   16.8  145.9   -4.8   219.1
 02 JAN 17  17:18:00:00     404   10.9      34   -1.3      193.7   -1.3   16.8  145.9   -4.8   218.6
 02 JAN 17  17:19:00:00     392   12.2      30   -0.5      193.7   -1.2   16.8  145.9   -4.8   218.0
 02 JAN 17  17:20:00:00     387   12.0      28    0.9      193.7   -1.0   16.8  145.9   -4.8   217.5
 02 JAN 17  17:21:00:00     384   12.6      27    1.5      193.7   -0.8   16.8  145.9   -4.8   216.9
 02 JAN 17  17:22:00:00     380   13.1      26    1.8      193.7   -0.7   16.8  145.9   -4.8   216.4
 02 JAN 17  17:23:00:00     391   11.0      29    1.0      193.7   -0.5   16.8  145.9   -4.8   215.8
 02 JAN 18  18:00:00:00     387   10.1      29   -0.6      193.7   -0.3   16.8  145.9   -4.8   215.3
 02 JAN 18  18:01:00:00     375   13.2      25    1.9      193.7   -0.2   16.8  145.9   -4.8   214.7
 02 JAN 18  18:02:00:00     362    9.9      23    0.1      193.7    0.0   16.8  145.9   -4.8   214.2
 02 JAN 18  18:03:00:00     358   10.5      22    0.3      193.7    0.2   16.8  146.0   -4.8   213.6
 02 JAN 18  18:04:00:00     360   11.0      23    0.2      193.7    0.4   16.8  146.0   -4.8   213.1
 02 JAN 18  18:05:00:00     357   10.3      23    0.2      193.7    0.5   16.8  146.0   -4.8   212.5
 02 JAN 18  18:06:00:00     353    9.1      24    0.6      193.6    0.7   16.8  146.0   -4.8   212.0
 02 JAN 18  18:07:00:00     350    7.7      25    0.1      193.6    0.9   16.8  146.0   -4.8   211.4
 02 JAN 18  18:08:00:00     347    6.8      25   -0.4      193.6    1.0   16.8  146.0   -4.8   210.9
 02 JAN 18  18:09:00:00     341    5.6      25   -0.8      193.6    1.2   16.8  146.0   -4.8   210.3
 02 JAN 18  18:10:00:00     331    5.1      24   -2.0      193.6    1.4   16.8  146.0   -4.8   209.8
 02 JAN 18  18:11:00:00     329    6.3      24   -2.0      193.6    1.5   16.8  146.0   -4.8   209.2
 02 JAN 18  18:12:00:00     327    6.7      23   -1.5      193.6    1.7   16.8  146.0   -4.8   208.7
 02 JAN 18  18:13:00:00     326    7.5      23   -1.9      193.6    1.9   16.8  146.0   -4.9   208.1
 02 JAN 18  18:14:00:00     316    9.2      21   -1.9      193.6    2.1   16.8  146.0   -4.9   207.6
 02 JAN 18  18:15:00:00     306   11.2      20   -1.5      193.6    2.2   16.8  146.0   -4.9   207.0
 02 JAN 18  18:16:00:00     306   12.4      19   -1.1      193.6    2.4   16.8  146.0   -4.9   206.5
 02 JAN 18  18:17:00:00     314   12.3      20   -2.3      193.6    2.6   16.8  146.0   -4.9   205.9
 02 JAN 18  18:18:00:00     309   12.3      20   -1.9      193.6    2.7   16.8  146.0   -4.9   205.4
 02 JAN 18  18:19:00:00     305   12.6      19   -1.5      193.6    2.9   16.8  146.0   -4.9   204.8
 02 JAN 18  18:20:00:00     301   14.0      19   -1.5      193.6    3.1   16.8  146.0   -4.9   204.3
 02 JAN 18  18:21:00:00     302   15.0      19   -1.6      193.6    3.2   16.8  146.0   -4.9   203.7
 02 JAN 18  18:22:00:00     300   10.6      19   -0.2      193.6    3.4   16.8  146.0   -4.9   203.2
 02 JAN 18  18:23:00:00     297   10.5      19    0.4      193.6    3.6   16.8  146.0   -4.9   202.6
 02 JAN 19  19:00:00:00     300   10.1      19    0.1      193.6    3.7   16.8  146.0   -4.9   202.1
 02 JAN 19  19:01:00:00     306    8.5      19   -0.9      193.6    3.9   16.8  146.0   -4.9   201.5
 02 JAN 19  19:02:00:00     305    9.4      19   -1.7      193.6    4.1   16.8  146.0   -4.9   201.0
 02 JAN 19  19:03:00:00     307   11.2      19   -2.7      193.6    4.2   16.8  146.0   -4.9   200.4
 02 JAN 19  19:04:00:00     326   20.0      22   -4.1      193.6    4.4   16.8  146.0   -4.9   199.9
 02 JAN 19  19:05:00:00     334   18.8      24   -3.4      193.6    4.6   16.8  146.0   -4.9   199.3
 02 JAN 19  19:06:00:00     323   32.4      22   -7.2      193.5    4.7   16.8  146.0   -4.9   198.8
 02 JAN 19  19:07:00:00     347   44.7      26   -7.1      193.5    4.9   16.8  146.0   -4.9   198.2
 02 JAN 19  19:08:00:00     367   36.7      29   -5.3      193.5    5.1   16.8  146.0   -4.9   197.7
 02 JAN 19  19:09:00:00     362   19.5      24   -2.8      193.5    5.3   16.8  146.0   -4.9   197.1
 02 JAN 19  19:10:00:00     378   23.4      32   -0.8      193.5    5.4   16.8  146.0   -4.9   196.6
 02 JAN 19  19:11:00:00     405   25.7      43   -2.2      193.5    5.6   16.8  146.0   -4.9   196.0
 02 JAN 19  19:12:00:00     419   29.6      44   -3.2      193.5    5.8   16.8  146.0   -4.9   195.5
 02 JAN 19  19:13:00:00     423   34.1      46   -4.1      193.5    5.9   16.8  146.0   -4.9   194.9
 02 JAN 19  19:14:00:00     423   39.2      45   -3.0      193.5    6.1   16.8  146.0   -5.0   194.4
 02 JAN 19  19:15:00:00     430   40.2      42   -3.8      193.5    6.3   16.8  146.0   -5.0   193.8
 02 JAN 19  19:16:00:00     419   26.2      40   -2.9      193.5    6.4   16.8  146.0   -5.0   193.3
 02 JAN 19  19:17:00:00     418   28.8      36   -2.0      193.5    6.6   16.8  146.0   -5.0   192.7
 02 JAN 19  19:18:00:00     431   33.5      37   -2.3      193.5    6.8   16.8  146.0   -5.0   192.2
 02 JAN 19  19:19:00:00     417   31.0      36   -3.3      193.5    6.9   16.8  146.0   -5.0   191.6
 02 JAN 19  19:20:00:00     407   27.0      33   -3.3      193.5    7.1   16.8  146.0   -5.0   191.1
 02 JAN 19  19:21:00:00     411   27.2      34   -2.8      193.5    7.3   16.8  146.0   -5.0   190.5
 02 JAN 19  19:22:00:00     403   28.2      32   -2.4      193.5    7.4   16.8  146.0   -5.0   190.0
 02 JAN 19  19:23:00:00     396   20.7      30   -2.7      193.5    7.6   16.8  146.0   -5.0   189.4
 02 JAN 20  20:00:00:00     397   14.7      30   -2.8      193.5    7.8   16.8  146.0   -5.0   188.9
 02 JAN 20  20:01:00:00     409   14.9      34   -1.9      193.5    7.9   16.8  146.0   -5.0   188.3
 02 JAN 20  20:02:00:00     408   10.7      34   -1.9      193.5    8.1   16.8  146.0   -5.0   187.8
 02 JAN 20  20:03:00:00     407   10.1      35   -1.9      193.5    8.3   16.8  146.0   -5.0   187.2
 02 JAN 20  20:04:00:00     415   10.4      38   -1.3      193.5    8.4   16.7  146.0   -5.0   186.7
 02 JAN 20  20:05:00:00     437   11.0      40   -0.1      193.5    8.6   16.7  146.0   -5.0   186.1
 02 JAN 20  20:06:00:00     441    9.4      42    0.6      193.4    8.8   16.7  146.0   -5.0   185.6
 02 JAN 20  20:07:00:00     461    8.3      49    0.1      193.4    8.9   16.7  146.0   -5.0   185.0
 02 JAN 20  20:08:00:00     452    7.8      49   -0.9      193.4    9.1   16.7  146.0   -5.0   184.5
 02 JAN 20  20:09:00:00     431    7.6      45   -1.4      193.4    9.3   16.7  146.0   -5.0   183.9
 02 JAN 20  20:10:00:00     437    6.2      46    0.5      193.4    9.4   16.7  146.0   -5.0   183.4
 02 JAN 20  20:11:00:00     426    7.3      40    0.5      193.4    9.6   16.7  146.0   -5.0   182.8
 02 JAN 20  20:12:00:00     432    6.6      41   -0.5      193.4    9.8   16.7  146.0   -5.0   182.3
 02 JAN 20  20:13:00:00     506    7.2      50    2.5      193.4    9.9   16.7  146.0   -5.0   181.7
 02 JAN 20  20:14:00:00     499    8.6      46    3.7      193.4   10.1   16.7  146.0   -5.0   181.2
 02 JAN 20  20:15:00:00     496    8.5      46    3.0      193.4   10.3   16.7  146.0   -5.0   180.6
 02 JAN 20  20:16:00:00     489    8.9      46    2.8      193.4   10.4   16.7  146.0   -5.1   180.1
 02 JAN 20  20:17:00:00     489    9.8      48    2.4      193.4   10.6   16.7  146.0   -5.1   179.5
 02 JAN 20  20:18:00:00     494   10.7      54    2.5      193.4   10.8   16.7  146.0   -5.1   179.0
 02 JAN 20  20:19:00:00     477   10.1      55    2.4      193.4   10.9   16.7  146.0   -5.1   178.4
 02 JAN 20  20:20:00:00     469   11.6      55    2.4      193.4   11.1   16.7  146.0   -5.1   177.9
 02 JAN 20  20:21:00:00     458   12.8      53    2.6      193.4   11.3   16.7  146.0   -5.1   177.3
 02 JAN 20  20:22:00:00     450   13.2      49    3.5      193.4   11.4   16.7  146.0   -5.1   176.8
 02 JAN 20  20:23:00:00     441   14.9      46    4.6      193.4   11.6   16.7  146.0   -5.1   176.2
 02 JAN 21  21:00:00:00     436   16.0      44    2.8      193.4   11.8   16.7  146.0   -5.1   175.7
 02 JAN 21  21:01:00:00     429   13.8      46    1.9      193.4   11.9   16.7  146.0   -5.1   175.1
 02 JAN 21  21:02:00:00     440   12.8      46    2.4      193.4   12.1   16.7  146.0   -5.1   174.6
 02 JAN 21  21:03:00:00     429   12.0      47    1.0      193.4   12.3   16.7  146.0   -5.1   174.0
 02 JAN 21  21:04:00:00     434   11.7      47    1.5      193.4   12.4   16.7  146.0   -5.1   173.5
 02 JAN 21  21:05:00:00     440   11.7      46    1.5      193.4   12.6   16.7  146.0   -5.1   172.9
 02 JAN 21  21:06:00:00     473    9.0      57    1.3      193.4   12.7   16.7  146.0   -5.1   172.4
 02 JAN 21  21:07:00:00     486    7.2      55    2.6      193.4   12.9   16.7  146.0   -5.1   171.8
 02 JAN 21  21:08:00:00     494    6.1      55    0.3      193.4   13.1   16.7  146.0   -5.1   171.3
 02 JAN 21  21:09:00:00     472    6.0      52   -2.3      193.4   13.2   16.7  146.0   -5.1   170.7
 02 JAN 21  21:10:00:00     447    6.0      47   -1.4      193.3   13.4   16.7  146.0   -5.1   170.2
 02 JAN 21  21:11:00:00     456    6.0      48   -0.9      193.3   13.6   16.7  146.0   -5.1   169.6
 02 JAN 21  21:12:00:00     465    5.8      48    2.6      193.3   13.7   16.6  146.0   -5.1   169.1
 02 JAN 21  21:13:00:00     477    5.6      51    2.7      193.3   13.9   16.6  146.0   -5.1   168.5
 02 JAN 21  21:14:00:00     456    5.5      47    0.2      193.3   14.1   16.6  146.0   -5.1   168.0
 02 JAN 21  21:15:00:00     433    5.4      42    2.9      193.3   14.2   16.6  146.0   -5.1   167.4
 02 JAN 21  21:16:00:00     414    4.3      36    0.8      193.3   14.4   16.6  146.0   -5.1   166.9
 02 JAN 21  21:17:00:00     416    5.4      36    1.7      193.3   14.6   16.6  146.0   -5.1   166.3
 02 JAN 21  21:18:00:00     427    6.6      37   -2.2      193.3   14.7   16.6  146.0   -5.1   165.8
 02 JAN 21  21:19:00:00     391    6.5      31    0.8      193.3   14.9   16.6  146.0   -5.2   165.2
 02 JAN 21  21:20:00:00     394    6.4      30    1.8      193.3   15.0   16.6  146.0   -5.2   164.7
 02 JAN 21  21:21:00:00     382    6.6      27    2.5      193.3   15.2   16.6  146.0   -5.2   164.1
 02 JAN 21  21:22:00:00     380    5.6      26    1.1      193.3   15.4   16.6  146.0   -5.2   163.6
 02 JAN 21  21:23:00:00     381    6.5      26    2.5      193.3   15.5   16.6  146.0   -5.2   163.0
 02 JAN 22  22:00:00:00     386    5.3      29    1.0      193.3   15.7   16.6  146.0   -5.2   162.5
 02 JAN 22  22:01:00:00     387    4.4      29   -0.3      193.3   15.9   16.6  146.0   -5.2   161.9
 02 JAN 22  22:02:00:00     381    4.8      27   -0.4      193.3   16.0   16.6  146.0   -5.2   161.4
 02 JAN 22  22:03:00:00     379    5.9      29   -1.6      193.3   16.2   16.6  146.0   -5.2   160.8
 02 JAN 22  22:04:00:00     380    5.8      30   -0.3      193.3   16.3   16.6  146.0   -5.2   160.3
 02 JAN 22  22:05:00:00     381    7.5      29   -1.2      193.3   16.5   16.6  146.0   -5.2   159.7
 02 JAN 22  22:06:00:00     402    8.2      33   -3.5      193.3   16.7   16.6  146.0   -5.2   159.2
 02 JAN 22  22:07:00:00     392    9.3      30   -4.6      193.3   16.8   16.6  146.0   -5.2   158.6
 02 JAN 22  22:08:00:00     391    6.4      34   -2.3      193.3   17.0   16.6  146.0   -5.2   158.1
 02 JAN 22  22:09:00:00     387    6.7      33   -2.4      193.3   17.2   16.6  146.0   -5.2   157.5
 02 JAN 22  22:10:00:00     381    8.2      29   -3.5      193.3   17.3   16.5  146.0   -5.2   157.0
 02 JAN 22  22:11:00:00     378    7.8      29   -1.5      193.3   17.5   16.5  146.0   -5.2   156.4
 02 JAN 22  22:12:00:00     377    6.4      31   -1.0      193.3   17.6   16.5  146.0   -5.2   155.9
 02 JAN 22  22:13:00:00     382    5.7      37   -1.6      193.3   17.8   16.5  146.0   -5.2   155.3
 02 JAN 22  22:14:00:00     373    6.0      33   -1.5      193.3   18.0   16.5  146.0   -5.2   154.8
 02 JAN 22  22:15:00:00     367    5.6      32   -1.4      193.3   18.1   16.5  146.0   -5.2   154.2
 02 JAN 22  22:16:00:00     364    6.6      29   -3.3      193.3   18.3   16.5  146.0   -5.2   153.7
 02 JAN 22  22:17:00:00     362    6.4      27   -2.2      193.3   18.5   16.5  146.0   -5.2   153.1
 02 JAN 22  22:18:00:00     363    5.4      29   -0.7      193.3   18.6   16.5  146.0   -5.2   152.6
 02 JAN 22  22:19:00:00     360    5.8      25   -1.4      193.3   18.8   16.5  146.0   -5.2   152.0
 02 JAN 22  22:20:00:00     359    6.1      25   -2.3      193.3   18.9   16.5  146.0   -5.2   151.5
 02 JAN 22  22:21:00:00     367    9.4      24   -0.4      193.3   19.1   16.5  146.0   -5.2   150.9
 02 JAN 22  22:22:00:00     357    8.0      23   -1.7      193.2   19.3   16.5  146.0   -5.3   150.4
 02 JAN 22  22:23:00:00     356    9.9      23   -3.9      193.2   19.4   16.5  146.0   -5.3   149.8
 02 JAN 23  23:00:00:00     356    8.4      22   -2.3      193.2   19.6   16.5  146.0   -5.3   149.3
 02 JAN 23  23:01:00:00     350    6.7      23   -2.7      193.2   19.7   16.5  146.0   -5.3   148.7
 02 JAN 23  23:02:00:00     355    5.3      25   -0.3      193.2   19.9   16.5  146.0   -5.3   148.2
 02 JAN 23  23:03:00:00     365    6.2      32    1.4      193.2   20.1   16.5  146.0   -5.3   147.6
 02 JAN 23  23:04:00:00     362    7.6      31    2.1      193.2   20.2   16.5  146.0   -5.3   147.0
 02 JAN 23  23:05:00:00     367   10.3      27   -1.0      193.2   20.4   16.4  146.0   -5.3   146.5
 02 JAN 23  23:06:00:00     361    7.6      26   -1.9      193.2   20.5   16.4  146.0   -5.3   145.9
 02 JAN 23  23:07:00:00     366    8.5      28    0.4      193.2   20.7   16.4  146.0   -5.3   145.4
 02 JAN 23  23:08:00:00     374    8.9      29   -3.7      193.2   20.9   16.4  146.0   -5.3   144.8
 02 JAN 23  23:09:00:00     372    9.1      29   -3.8      193.2   21.0   16.4  146.0   -5.3   144.3
 02 JAN 23  23:10:00:00     369    6.4      30   -0.6      193.2   21.2   16.4  146.0   -5.3   143.7
 02 JAN 23  23:11:00:00     383    7.1      38   -0.7      193.2   21.3   16.4  146.0   -5.3   143.2
 02 JAN 23  23:12:00:00     380    9.4      37    3.5      193.2   21.5   16.4  146.0   -5.3   142.6
 02 JAN 23  23:13:00:00     377    9.1      34    3.3      193.2   21.7   16.4  146.0   -5.3   142.1
 02 JAN 23  23:14:00:00     368    6.4      34    1.0      193.2   21.8   16.4  146.0   -5.3   141.5
 02 JAN 23  23:15:00:00     371    7.1      31   -2.0      193.2   22.0   16.4  146.0   -5.3   141.0
 02 JAN 23  23:16:00:00     375    7.7      30   -2.2      193.2   22.1   16.4  146.0   -5.3   140.4
 02 JAN 23  23:17:00:00     386    6.3      36   -0.8      193.2   22.3   16.4  146.0   -5.3   139.9
 02 JAN 23  23:18:00:00     374    6.0      37   -0.7      193.2   22.5   16.4  146.0   -5.3   139.3
 02 JAN 23  23:19:00:00     370    5.6      37    0.5      193.2   22.6   16.4  146.0   -5.3   138.8
 02 JAN 23  23:20:00:00     366    6.8      33    2.2      193.2   22.8   16.3  146.0   -5.3   138.2
 02 JAN 23  23:21:00:00     367    6.2      30    0.4      193.2   22.9   16.3  146.0   -5.3   137.7
 02 JAN 23  23:22:00:00     369    5.4      32    0.4      193.2   23.1   16.3  146.0   -5.3   137.1
 02 JAN 23  23:23:00:00     364    4.7      35   -1.4      193.2   23.2   16.3  146.0   -5.3   136.6
 02 JAN 24  24:00:00:00     353    5.2      33   -0.2      193.2   23.4   16.3  146.0   -5.3   136.0
 02 JAN 24  24:01:00:00     358    5.5      29    0.7      193.2   23.6   16.3  146.0   -5.3   135.5
 02 JAN 24  24:02:00:00     368    7.0      29   -0.4      193.2   23.7   16.3  146.0   -5.4   134.9
 02 JAN 24  24:03:00:00     369    7.2      30    3.1      193.2   23.9   16.3  146.0   -5.4   134.4
 02 JAN 24  24:04:00:00     378    9.4      28    4.4      193.2   24.0   16.3  146.0   -5.4   133.8
 02 JAN 24  24:05:00:00     375    9.0      26    3.8      193.2   24.2   16.3  146.0   -5.4   133.3
 02 JAN 24  24:06:00:00     367    7.4      27    3.0      193.2   24.3   16.3  146.0   -5.4   132.7
 02 JAN 24  24:07:00:00     367    7.4      25    2.8      193.2   24.5   16.3  146.0   -5.4   132.2
 02 JAN 24  24:08:00:00     362    6.3      27    2.7      193.2   24.7   16.3  146.0   -5.4   131.6
 02 JAN 24  24:09:00:00     356    3.7      31   -1.3      193.2   24.8   16.3  146.0   -5.4   131.1
 02 JAN 24  24:10:00:00     359    6.6      29    2.9      193.2   25.0   16.2  146.0   -5.4   130.5
 02 JAN 24  24:11:00:00     361    6.8      27    2.7      193.2   25.1   16.2  146.0   -5.4   130.0
 02 JAN 24  24:12:00:00      -1   -1.0      -1   99.0      193.2   25.3   16.2  146.0   -5.4   129.4
 02 JAN 24  24:13:00:00      -1   -1.0      -1   99.0      193.2   25.4   16.2  146.0   -5.4   128.9
 02 JAN 24  24:14:00:00      -1   -1.0      -1   99.0      193.2   25.6   16.2  146.0   -5.4   128.3
 02 JAN 24  24:15:00:00      -1   -1.0      -1   99.0      193.2   25.8   16.2  146.0   -5.4   127.8
 02 JAN 24  24:16:00:00      -1   -1.0      -1   99.0      193.2   25.9   16.2  146.0   -5.4   127.2
 02 JAN 24  24:17:00:00      -1   -1.0      -1   99.0      193.2   26.1   16.2  146.0   -5.4   126.7
 02 JAN 24  24:18:00:00      -1   -1.0      -1   99.0      193.2   26.2   16.2  146.0   -5.4   126.1
 02 JAN 24  24:19:00:00      -1   -1.0      -1   99.0      193.2   26.4   16.2  146.0   -5.4   125.6
 02 JAN 24  24:20:00:00      -1   -1.0      -1   99.0      193.2   26.5   16.2  146.0   -5.4   125.0
 02 JAN 24  24:21:00:00      -1   -1.0      -1   99.0      193.2   26.7   16.2  146.0   -5.4   124.5
 02 JAN 24  24:22:00:00      -1   -1.0      -1   99.0      193.2   26.8   16.2  146.0   -5.4   123.9
 02 JAN 24  24:23:00:00      -1   -1.0      -1   99.0      193.2   27.0   16.1  146.0   -5.4   123.4
 02 JAN 25  25:00:00:00      -1   -1.0      -1   99.0      193.2   27.2   16.1  146.0   -5.4   122.8
 02 JAN 25  25:01:00:00      -1   -1.0      -1   99.0      193.2   27.3   16.1  146.0   -5.4   122.3
 02 JAN 25  25:02:00:00      -1   -1.0      -1   99.0      193.2   27.5   16.1  146.0   -5.4   121.7
 02 JAN 25  25:03:00:00      -1   -1.0      -1   99.0      193.2   27.6   16.1  146.0   -5.4   121.2
 02 JAN 25  25:04:00:00      -1   -1.0      -1   99.0      193.2   27.8   16.1  146.0   -5.4   120.6
 02 JAN 25  25:05:00:00      -1   -1.0      -1   99.0      193.2   27.9   16.1  146.0   -5.4   120.1
 02 JAN 25  25:06:00:00      -1   -1.0      -1   99.0      193.2   28.1   16.1  146.0   -5.5   119.5
 02 JAN 25  25:07:00:00      -1   -1.0      -1   99.0      193.2   28.2   16.1  146.0   -5.5   119.0
 02 JAN 25  25:08:00:00      -1   -1.0      -1   99.0      193.2   28.4   16.1  146.0   -5.5   118.4
 02 JAN 25  25:09:00:00      -1   -1.0      -1   99.0      193.2   28.5   16.1  146.0   -5.5   117.9
 02 JAN 25  25:10:00:00      -1   -1.0      -1   99.0      193.2   28.7   16.1  146.0   -5.5   117.3
 02 JAN 25  25:11:00:00      -1   -1.0      -1   99.0      193.2   28.8   16.0  146.0   -5.5   116.8
 02 JAN 25  25:12:00:00      -1   -1.0      -1   99.0      193.2   29.0   16.0  146.0   -5.5   116.2
 02 JAN 25  25:13:00:00      -1   -1.0      -1   99.0      193.2   29.2   16.0  146.0   -5.5   115.7
 02 JAN 25  25:14:00:00      -1   -1.0      -1   99.0      193.2   29.3   16.0  146.0   -5.5   115.1
 02 JAN 25  25:15:00:00      -1   -1.0      -1   99.0      193.2   29.5   16.0  146.1   -5.5   114.6
 02 JAN 25  25:16:00:00      -1   -1.0      -1   99.0      193.2   29.6   16.0  146.1   -5.5   114.0
 02 JAN 25  25:17:00:00      -1   -1.0      -1   99.0      193.2   29.8   16.0  146.1   -5.5   113.5
 02 JAN 25  25:18:00:00      -1   -1.0      -1   99.0      193.2   29.9   16.0  146.1   -5.5   112.9
 02 JAN 25  25:19:00:00      -1   -1.0      -1   99.0      193.2   30.1   16.0  146.1   -5.5   112.4
 02 JAN 25  25:20:00:00      -1   -1.0      -1   99.0      193.2   30.2   16.0  146.1   -5.5   111.8
 02 JAN 25  25:21:00:00      -1   -1.0      -1   99.0      193.2   30.4   16.0  146.1   -5.5   111.3
 02 JAN 25  25:22:00:00      -1   -1.0      -1   99.0      193.2   30.5   15.9  146.1   -5.5   110.7
 02 JAN 25  25:23:00:00      -1   -1.0      -1   99.0      193.2   30.7   15.9  146.1   -5.5   110.2
 02 JAN 26  26:00:00:00      -1   -1.0      -1   99.0      193.3   30.8   15.9  146.1   -5.5   109.6
 02 JAN 26  26:01:00:00      -1   -1.0      -1   99.0      193.3   31.0   15.9  146.1   -5.5   109.1
 02 JAN 26  26:02:00:00      -1   -1.0      -1   99.0      193.3   31.1   15.9  146.1   -5.5   108.5
 02 JAN 26  26:03:00:00      -1   -1.0      -1   99.0      193.3   31.3   15.9  146.1   -5.5   108.0
 02 JAN 26  26:04:00:00      -1   -1.0      -1   99.0      193.3   31.4   15.9  146.1   -5.5   107.4
 02 JAN 26  26:05:00:00      -1   -1.0      -1   99.0      193.3   31.6   15.9  146.1   -5.5   106.9
 02 JAN 26  26:06:00:00      -1   -1.0      -1   99.0      193.3   31.7   15.9  146.1   -5.5   106.3
 02 JAN 26  26:07:00:00      -1   -1.0      -1   99.0      193.3   31.9   15.9  146.1   -5.5   105.8
 02 JAN 26  26:08:00:00      -1   -1.0      -1   99.0      193.3   32.0   15.9  146.1   -5.5   105.2
 02 JAN 26  26:09:00:00      -1   -1.0      -1   99.0      193.3   32.2   15.8  146.1   -5.5   104.7
 02 JAN 26  26:10:00:00      -1   -1.0      -1   99.0      193.3   32.3   15.8  146.1   -5.5   104.1
 02 JAN 26  26:11:00:00      -1   -1.0      -1   99.0      193.3   32.5   15.8  146.1   -5.6   103.6
 02 JAN 26  26:12:00:00      -1   -1.0      -1   99.0      193.3   32.6   15.8  146.1   -5.6   103.0
 02 JAN 26  26:13:00:00      -1   -1.0      -1   99.0      193.3   32.8   15.8  146.1   -5.6   102.5
 02 JAN 26  26:14:00:00      -1   -1.0      -1   99.0      193.3   32.9   15.8  146.1   -5.6   101.9
 02 JAN 26  26:15:00:00      -1   -1.0      -1   99.0      193.3   33.1   15.8  146.1   -5.6   101.4
 02 JAN 26  26:16:00:00      -1   -1.0      -1   99.0      193.3   33.2   15.8  146.1   -5.6   100.8
 02 JAN 26  26:17:00:00      -1   -1.0      -1   99.0      193.3   33.4   15.8  146.1   -5.6   100.3
 02 JAN 26  26:18:00:00      -1   -1.0      -1   99.0      193.3   33.5   15.8  146.1   -5.6    99.7
 02 JAN 26  26:19:00:00      -1   -1.0      -1   99.0      193.3   33.7   15.7  146.1   -5.6    99.2
 02 JAN 26  26:20:00:00      -1   -1.0      -1   99.0      193.3   33.8   15.7  146.1   -5.6    98.6
 02 JAN 26  26:21:00:00      -1   -1.0      -1   99.0      193.3   34.0   15.7  146.1   -5.6    98.1
 02 JAN 26  26:22:00:00      -1   -1.0      -1   99.0      193.3   34.1   15.7  146.1   -5.6    97.5
 02 JAN 26  26:23:00:00      -1   -1.0      -1   99.0      193.3   34.3   15.7  146.1   -5.6    97.0
 02 JAN 27  27:00:00:00      -1   -1.0      -1   99.0      193.3   34.4   15.7  146.1   -5.6    96.4
 02 JAN 27  27:01:00:00      -1   -1.0      -1   99.0      193.3   34.6   15.7  146.1   -5.6    95.9
 02 JAN 27  27:02:00:00      -1   -1.0      -1   99.0      193.3   34.7   15.7  146.1   -5.6    95.3
 02 JAN 27  27:03:00:00      -1   -1.0      -1   99.0      193.4   34.9   15.7  146.1   -5.6    94.8
 02 JAN 27  27:04:00:00      -1   -1.0      -1   99.0      193.4   35.0   15.6  146.1   -5.6    94.2
 02 JAN 27  27:05:00:00      -1   -1.0      -1   99.0      193.4   35.2   15.6  146.1   -5.6    93.7
 02 JAN 27  27:06:00:00      -1   -1.0      -1   99.0      193.4   35.3   15.6  146.1   -5.6    93.1
 02 JAN 27  27:07:00:00      -1   -1.0      -1   99.0      193.4   35.5   15.6  146.1   -5.6    92.6
 02 JAN 27  27:08:00:00      -1   -1.0      -1   99.0      193.4   35.6   15.6  146.1   -5.6    92.0
 02 JAN 27  27:09:00:00      -1   -1.0      -1   99.0      193.4   35.8   15.6  146.1   -5.6    91.5
 02 JAN 27  27:10:00:00      -1   -1.0      -1   99.0      193.4   35.9   15.6  146.1   -5.6    90.9
 02 JAN 27  27:11:00:00      -1   -1.0      -1   99.0      193.4   36.1   15.6  146.1   -5.6    90.4
 02 JAN 27  27:12:00:00      -1   -1.0      -1   99.0      193.4   36.2   15.6  146.1   -5.6    89.8
 02 JAN 27  27:13:00:00      -1   -1.0      -1   99.0      193.4   36.4   15.5  146.1   -5.6    89.3
 02 JAN 27  27:14:00:00      -1   -1.0      -1   99.0      193.4   36.5   15.5  146.1   -5.6    88.7
 02 JAN 27  27:15:00:00      -1   -1.0      -1   99.0      193.4   36.7   15.5  146.1   -5.6    88.2
 02 JAN 27  27:16:00:00      -1   -1.0      -1   99.0      193.4   36.8   15.5  146.1   -5.6    87.6
 02 JAN 27  27:17:00:00      -1   -1.0      -1   99.0      193.4   36.9   15.5  146.1   -5.7    87.1
 02 JAN 27  27:18:00:00      -1   -1.0      -1   99.0      193.4   37.1   15.5  146.1   -5.7    86.5
 02 JAN 27  27:19:00:00      -1   -1.0      -1   99.0      193.4   37.2   15.5  146.1   -5.7    86.0
 02 JAN 27  27:20:00:00      -1   -1.0      -1   99.0      193.5   37.4   15.5  146.1   -5.7    85.4
 02 JAN 27  27:21:00:00      -1   -1.0      -1   99.0      193.5   37.5   15.5  146.1   -5.7    84.9
 02 JAN 27  27:22:00:00      -1   -1.0      -1   99.0      193.5   37.7   15.4  146.1   -5.7    84.3
 02 JAN 27  27:23:00:00      -1   -1.0      -1   99.0      193.5   37.8   15.4  146.1   -5.7    83.8
 02 JAN 28  28:00:00:00      -1   -1.0      -1   99.0      193.5   38.0   15.4  146.1   -5.7    83.2
 02 JAN 28  28:01:00:00      -1   -1.0      -1   99.0      193.5   38.1   15.4  146.1   -5.7    82.7
 02 JAN 28  28:02:00:00      -1   -1.0      -1   99.0      193.5   38.3   15.4  146.1   -5.7    82.1
 02 JAN 28  28:03:00:00      -1   -1.0      -1   99.0      193.5   38.4   15.4  146.1   -5.7    81.6
 02 JAN 28  28:04:00:00      -1   -1.0      -1   99.0      193.5   38.6   15.4  146.1   -5.7    81.0
 02 JAN 28  28:05:00:00      -1   -1.0      -1   99.0      193.5   38.7   15.4  146.1   -5.7    80.5
 02 JAN 28  28:06:00:00      -1   -1.0      -1   99.0      193.5   38.8   15.3  146.1   -5.7    79.9
 02 JAN 28  28:07:00:00      -1   -1.0      -1   99.0      193.5   39.0   15.3  146.1   -5.7    79.4
 02 JAN 28  28:08:00:00      -1   -1.0      -1   99.0      193.5   39.1   15.3  146.1   -5.7    78.8
 02 JAN 28  28:09:00:00      -1   -1.0      -1   99.0      193.5   39.3   15.3  146.1   -5.7    78.3
 02 JAN 28  28:10:00:00      -1   -1.0      -1   99.0      193.6   39.4   15.3  146.1   -5.7    77.7
 02 JAN 28  28:11:00:00      -1   -1.0      -1   99.0      193.6   39.6   15.3  146.1   -5.7    77.2
 02 JAN 28  28:12:00:00      -1   -1.0      -1   99.0      193.6   39.7   15.3  146.1   -5.7    76.6
 02 JAN 28  28:13:00:00      -1   -1.0      -1   99.0      193.6   39.9   15.3  146.1   -5.7    76.1
 02 JAN 28  28:14:00:00      -1   -1.0      -1   99.0      193.6   40.0   15.2  146.1   -5.7    75.5
 02 JAN 28  28:15:00:00      -1   -1.0      -1   99.0      193.6   40.1   15.2  146.1   -5.7    75.0
 02 JAN 28  28:16:00:00      -1   -1.0      -1   99.0      193.6   40.3   15.2  146.1   -5.7    74.4
 02 JAN 28  28:17:00:00      -1   -1.0      -1   99.0      193.6   40.4   15.2  146.1   -5.7    73.9
 02 JAN 28  28:18:00:00      -1   -1.0      -1   99.0      193.6   40.6   15.2  146.1   -5.7    73.3
 02 JAN 28  28:19:00:00      -1   -1.0      -1   99.0      193.6   40.7   15.2  146.1   -5.7    72.8
 02 JAN 28  28:20:00:00      -1   -1.0      -1   99.0      193.6   40.9   15.2  146.1   -5.7    72.2
 02 JAN 28  28:21:00:00      -1   -1.0      -1   99.0      193.6   41.0   15.2  146.1   -5.7    71.7
 02 JAN 28  28:22:00:00      -1   -1.0      -1   99.0      193.7   41.1   15.1  146.1   -5.7    71.1
 02 JAN 28  28:23:00:00      -1   -1.0      -1   99.0      193.7   41.3   15.1  146.1   -5.7    70.6
 02 JAN 29  29:00:00:00      -1   -1.0      -1   99.0      193.7   41.4   15.1  146.1   -5.8    70.0
 02 JAN 29  29:01:00:00      -1   -1.0      -1   99.0      193.7   41.6   15.1  146.1   -5.8    69.5
 02 JAN 29  29:02:00:00      -1   -1.0      -1   99.0      193.7   41.7   15.1  146.1   -5.8    68.9
 02 JAN 29  29:03:00:00      -1   -1.0      -1   99.0      193.7   41.9   15.1  146.1   -5.8    68.4
 02 JAN 29  29:04:00:00      -1   -1.0      -1   99.0      193.7   42.0   15.1  146.1   -5.8    67.8
 02 JAN 29  29:05:00:00      -1   -1.0      -1   99.0      193.7   42.1   15.1  146.1   -5.8    67.3
 02 JAN 29  29:06:00:00      -1   -1.0      -1   99.0      193.7   42.3   15.0  146.1   -5.8    66.7
 02 JAN 29  29:07:00:00      -1   -1.0      -1   99.0      193.7   42.4   15.0  146.1   -5.8    66.2
 02 JAN 29  29:08:00:00      -1   -1.0      -1   99.0      193.8   42.6   15.0  146.1   -5.8    65.6
 02 JAN 29  29:09:00:00      -1   -1.0      -1   99.0      193.8   42.7   15.0  146.1   -5.8    65.1
 02 JAN 29  29:10:00:00      -1   -1.0      -1   99.0      193.8   42.9   15.0  146.1   -5.8    64.5
 02 JAN 29  29:11:00:00      -1   -1.0      -1   99.0      193.8   43.0   15.0  146.1   -5.8    64.0
 02 JAN 29  29:12:00:00      -1   -1.0      -1   99.0      193.8   43.1   15.0  146.1   -5.8    63.4
 02 JAN 29  29:13:00:00      -1   -1.0      -1   99.0      193.8   43.3   14.9  146.1   -5.8    62.9
 02 JAN 29  29:14:00:00      -1   -1.0      -1   99.0      193.8   43.4   14.9  146.1   -5.8    62.3
 02 JAN 29  29:15:00:00      -1   -1.0      -1   99.0      193.8   43.6   14.9  146.1   -5.8    61.8
 02 JAN 29  29:16:00:00      -1   -1.0      -1   99.0      193.8   43.7   14.9  146.1   -5.8    61.2
 02 JAN 29  29:17:00:00      -1   -1.0      -1   99.0      193.9   43.8   14.9  146.1   -5.8    60.7
 02 JAN 29  29:18:00:00      -1   -1.0      -1   99.0      193.9   44.0   14.9  146.1   -5.8    60.1
 02 JAN 29  29:19:00:00     357    5.0      31    1.1      193.9   44.1   14.9  146.1   -5.8    59.6
 02 JAN 29  29:20:00:00     357    5.1      32    0.9      193.9   44.3   14.8  146.1   -5.8    59.0
 02 JAN 29  29:21:00:00     350    5.2      30    0.9      193.9   44.4   14.8  146.1   -5.8    58.5
 02 JAN 29  29:22:00:00     349    5.4      29    1.2      193.9   44.5   14.8  146.1   -5.8    57.9
 02 JAN 29  29:23:00:00     347    4.8      28   -1.5      193.9   44.7   14.8  146.1   -5.8    57.4
 02 JAN 30  30:00:00:00     348    4.6      28   -0.4      193.9   44.8   14.8  146.1   -5.8    56.8
 02 JAN 30  30:01:00:00     337    4.4      26    0.5      194.0   45.0   14.8  146.1   -5.8    56.3
 02 JAN 30  30:02:00:00     334    4.7      25    1.4      194.0   45.1   14.8  146.1   -5.8    55.7
 02 JAN 30  30:03:00:00     336    4.4      25    1.6      194.0   45.2   14.7  146.1   -5.8    55.2
 02 JAN 30  30:04:00:00     333    4.0      24    1.1      194.0   45.4   14.7  146.1   -5.8    54.6
 02 JAN 30  30:05:00:00     329    4.2      24    0.5      194.0   45.5   14.7  146.1   -5.8    54.1
 02 JAN 30  30:06:00:00     336    4.6      24    1.3      194.0   45.7   14.7  146.1   -5.8    53.5
 02 JAN 30  30:07:00:00     332    4.6      23    1.6      194.0   45.8   14.7  146.1   -5.9    53.0
 02 JAN 30  30:08:00:00     333    4.9      23    2.2      194.0   45.9   14.7  146.1   -5.9    52.4
 02 JAN 30  30:09:00:00     327    4.9      23   -0.1      194.1   46.1   14.7  146.1   -5.9    51.9
 02 JAN 30  30:10:00:00     326    6.2      22    1.7      194.1   46.2   14.6  146.1   -5.9    51.3
 02 JAN 30  30:11:00:00     327    5.4      22    2.0      194.1   46.4   14.6  146.1   -5.9    50.8
 02 JAN 30  30:12:00:00     339    4.1      25   -0.1      194.1   46.5   14.6  146.1   -5.9    50.2
 02 JAN 30  30:13:00:00     344    4.6      26   -0.6      194.1   46.6   14.6  146.1   -5.9    49.7
 02 JAN 30  30:14:00:00     338    5.6      24    0.7      194.1   46.8   14.6  146.1   -5.9    49.1
 02 JAN 30  30:15:00:00     335    6.3      23    1.7      194.1   46.9   14.6  146.1   -5.9    48.6
 02 JAN 30  30:16:00:00     331    7.7      22    2.8      194.1   47.1   14.6  146.1   -5.9    48.0
 02 JAN 30  30:17:00:00     331    7.5      22    2.8      194.2   47.2   14.5  146.1   -5.9    47.5
 02 JAN 30  30:18:00:00     319    7.8      21    0.9      194.2   47.3   14.5  146.1   -5.9    46.9
 02 JAN 30  30:19:00:00     328    5.5      22    1.2      194.2   47.5   14.5  146.1   -5.9    46.4
 02 JAN 30  30:20:00:00     318   10.9      20    3.8      194.2   47.6   14.5  146.1   -5.9    45.8
 02 JAN 30  30:21:00:00     307   10.8      19    3.2      194.2   47.7   14.5  146.1   -5.9    45.3
 02 JAN 30  30:22:00:00     314    7.8      20    0.9      194.2   47.9   14.5  146.1   -5.9    44.7
 02 JAN 30  30:23:00:00     309    8.1      20    0.9      194.2   48.0   14.4  146.1   -5.9    44.2
 02 JAN 31  31:00:00:00     310    7.7      19    0.7      194.3   48.2   14.4  146.1   -5.9    43.6
 02 JAN 31  31:01:00:00     309    9.3      19    1.0      194.3   48.3   14.4  146.1   -5.9    43.1
 02 JAN 31  31:02:00:00     311    9.4      20   -0.3      194.3   48.4   14.4  146.1   -5.9    42.5
 02 JAN 31  31:03:00:00     307   13.0      19    4.3      194.3   48.6   14.4  146.1   -5.9    42.0
 02 JAN 31  31:04:00:00     296   11.2      19    2.4      194.3   48.7   14.4  146.1   -5.9    41.4
 02 JAN 31  31:05:00:00     297   11.1      19    2.9      194.3   48.8   14.4  146.1   -5.9    40.9
 02 JAN 31  31:06:00:00     297   13.0      19    3.5      194.4   49.0   14.3  146.1   -5.9    40.3
 02 JAN 31  31:07:00:00     299   11.3      19    3.1      194.4   49.1   14.3  146.1   -5.9    39.8
 02 JAN 31  31:08:00:00     303   11.6      19    4.2      194.4   49.3   14.3  146.1   -5.9    39.2
 02 JAN 31  31:09:00:00     303   11.1      19    4.2      194.4   49.4   14.3  146.1   -5.9    38.7
 02 JAN 31  31:10:00:00     290   10.4      18    2.5      194.4   49.5   14.3  146.1   -5.9    38.1
 02 JAN 31  31:11:00:00     293    9.7      19    2.7      194.4   49.7   14.3  146.2   -5.9    37.6
 02 JAN 31  31:12:00:00     302   10.6      19    3.7      194.4   49.8   14.2  146.2   -5.9    37.0
 02 JAN 31  31:13:00:00     301   11.8      19    3.3      194.5   49.9   14.2  146.2   -5.9    36.4
 02 JAN 31  31:14:00:00     295   10.4      18   -0.4      194.5   50.1   14.2  146.2   -5.9    35.9
 02 JAN 31  31:15:00:00     284   11.6      17    0.7      194.5   50.2   14.2  146.2   -6.0    35.3
 02 JAN 31  31:16:00:00     291    7.8      18    2.6      194.5   50.3   14.2  146.2   -6.0    34.8
 02 JAN 31  31:17:00:00     293    6.7      19    1.1      194.5   50.5   14.2  146.2   -6.0    34.2
 02 JAN 31  31:18:00:00     286    9.8      17    2.3      194.5   50.6   14.1  146.2   -6.0    33.7
 02 JAN 31  31:19:00:00     284   15.0      17    4.8      194.6   50.8   14.1  146.2   -6.0    33.1
 02 JAN 31  31:20:00:00     313   13.0      20    2.8      194.6   50.9   14.1  146.2   -6.0    32.6
 02 JAN 31  31:21:00:00     355   26.7      25    6.6      194.6   51.0   14.1  146.2   -6.0    32.0
 02 JAN 31  31:22:00:00     369   22.0      27    5.0      194.6   51.2   14.1  146.2   -6.0    31.5
 02 JAN 31  31:23:00:00     367   23.4      27    5.7      194.6   51.3   14.1  146.2   -6.0    30.9
 02 FEB  1  32:00:00:00     359   25.6      25    5.7      194.6   51.4   14.0  146.2   -6.0    30.4
 02 FEB  1  32:01:00:00     353   33.1      24    7.0      194.7   51.6   14.0  146.2   -6.0    29.8
 02 FEB  1  32:02:00:00     350   23.3      24    6.2      194.7   51.7   14.0  146.2   -6.0    29.3
 02 FEB  1  32:03:00:00     353   24.3      28    4.6      194.7   51.8   14.0  146.2   -6.0    28.7
 02 FEB  1  32:04:00:00     352   35.6      30    5.6      194.7   52.0   14.0  146.2   -6.0    28.2
 02 FEB  1  32:05:00:00     346   23.8      27    3.3      194.7   52.1   14.0  146.2   -6.0    27.6
 02 FEB  1  32:06:00:00     352   24.5      26    2.8      194.7   52.2   13.9  146.2   -6.0    27.1
 02 FEB  1  32:07:00:00     347   20.0      25    1.6      194.8   52.4   13.9  146.2   -6.0    26.5
 02 FEB  1  32:08:00:00     345   22.1      23    1.2      194.8   52.5   13.9  146.2   -6.0    26.0
 02 FEB  1  32:09:00:00     345   23.7      22    1.5      194.8   52.6   13.9  146.2   -6.0    25.4
 02 FEB  1  32:10:00:00     339   31.2      22    3.3      194.8   52.8   13.9  146.2   -6.0    24.9
 02 FEB  1  32:11:00:00     353   20.8      22   -1.2      194.8   52.9   13.9  146.2   -6.0    24.3
 02 FEB  1  32:12:00:00     362   23.2      23   -3.1      194.9   53.0   13.8  146.2   -6.0    23.8
 02 FEB  1  32:13:00:00     356   21.4      22   -2.9      194.9   53.2   13.8  146.2   -6.0    23.2
 02 FEB  1  32:14:00:00     351   14.3      23   -2.0      194.9   53.3   13.8  146.2   -6.0    22.7
 02 FEB  1  32:15:00:00     343   15.8      23   -0.9      194.9   53.4   13.8  146.2   -6.0    22.1
 02 FEB  1  32:16:00:00     343   14.5      23    0.1      194.9   53.6   13.8  146.2   -6.0    21.6
 02 FEB  1  32:17:00:00     338   17.1      22    1.3      194.9   53.7   13.8  146.2   -6.0    21.0
 02 FEB  1  32:18:00:00     327   16.9      22   -1.9      195.0   53.8   13.7  146.2   -6.0    20.5
 02 FEB  1  32:19:00:00     320   19.5      20   -3.7      195.0   54.0   13.7  146.2   -6.0    19.9
 02 FEB  1  32:20:00:00     323   17.0      21   -1.6      195.0   54.1   13.7  146.2   -6.0    19.4
 02 FEB  1  32:21:00:00     329   23.6      20   -2.9      195.0   54.2   13.7  146.2   -6.0    18.8
 02 FEB  1  32:22:00:00     339   29.2      22   -2.8      195.0   54.4   13.7  146.2   -6.0    18.3
 02 FEB  1  32:23:00:00     347   21.9      25   -1.4      195.1   54.5   13.6  146.2   -6.0    17.7
 02 FEB  2  33:00:00:00     346   18.2      24   -2.7      195.1   54.6   13.6  146.2   -6.0    17.2
 02 FEB  2  33:01:00:00     344   13.8      26   -1.3      195.1   54.8   13.6  146.2   -6.1    16.6
 02 FEB  2  33:02:00:00     348    8.2      27   -2.7      195.1   54.9   13.6  146.2   -6.1    16.1
 02 FEB  2  33:03:00:00     349    6.8      24   -4.0      195.1   55.0   13.6  146.2   -6.1    15.5
 02 FEB  2  33:04:00:00     340    7.1      24   -5.4      195.2   55.2   13.6  146.2   -6.1    15.0
 02 FEB  2  33:05:00:00     348    4.8      28   -4.2      195.2   55.3   13.5  146.2   -6.1    14.4
 02 FEB  2  33:06:00:00     364    9.0      29   -6.0      195.2   55.4   13.5  146.2   -6.1    13.9
 02 FEB  2  33:07:00:00     386   13.0      34   -5.5      195.2   55.6   13.5  146.2   -6.1    13.3
 02 FEB  2  33:08:00:00     385   19.8      36   -6.2      195.2   55.7   13.5  146.2   -6.1    12.8
 02 FEB  2  33:09:00:00     377   20.5      35   -5.2      195.3   55.8   13.5  146.2   -6.1    12.2
 02 FEB  2  33:10:00:00     361   17.6      30   -1.9      195.3   56.0   13.5  146.2   -6.1    11.7
 02 FEB  2  33:11:00:00     368   11.5      36    0.7      195.3   56.1   13.4  146.2   -6.1    11.1
 02 FEB  2  33:12:00:00     391   12.0      39   -1.2      195.3   56.2   13.4  146.2   -6.1    10.6
 02 FEB  2  33:13:00:00     436   15.8      39   -3.6      195.3   56.4   13.4  146.2   -6.1    10.0
 02 FEB  2  33:14:00:00     435   13.4      39   -3.6      195.4   56.5   13.4  146.2   -6.1     9.5
 02 FEB  2  33:15:00:00     436   12.8      39   -3.8      195.4   56.6   13.4  146.2   -6.1     8.9
 02 FEB  2  33:16:00:00     429   13.3      38   -4.1      195.4   56.8   13.3  146.2   -6.1     8.4
 02 FEB  2  33:17:00:00     416   17.4      37   -5.6      195.4   56.9   13.3  146.2   -6.1     7.8
 02 FEB  2  33:18:00:00     392   18.3      39   -4.8      195.4   57.0   13.3  146.2   -6.1     7.3
 02 FEB  2  33:19:00:00     389   19.8      41   -3.8      195.5   57.1   13.3  146.2   -6.1     6.7
 02 FEB  2  33:20:00:00     398   19.3      41   -2.3      195.5   57.3   13.3  146.2   -6.1     6.2
 02 FEB  2  33:21:00:00     404   12.8      43   -1.5      195.5   57.4   13.2  146.2   -6.1     5.6
 02 FEB  2  33:22:00:00     398   13.6      43   -2.0      195.5   57.5   13.2  146.2   -6.1     5.1
 02 FEB  2  33:23:00:00     383   13.7      40   -1.6      195.5   57.7   13.2  146.2   -6.1     4.5
 02 FEB  3  34:00:00:00     393   13.9      41   -1.9      195.6   57.8   13.2  146.2   -6.1     4.0
 02 FEB  3  34:01:00:00     388   14.0      41   -2.0      195.6   57.9   13.2  146.2   -6.1     3.4
 02 FEB  3  34:02:00:00     383   14.7      40   -1.8      195.6   58.1   13.2  146.2   -6.1     2.9
 02 FEB  3  34:03:00:00     391   11.9      41   -1.3      195.6   58.2   13.1  146.2   -6.1     2.3
 02 FEB  3  34:04:00:00     392   11.7      41   -2.0      195.7   58.3   13.1  146.2   -6.1     1.8
 02 FEB  3  34:05:00:00     385   11.5      39   -1.5      195.7   58.5   13.1  146.2   -6.1     1.2
 02 FEB  3  34:06:00:00     389    9.9      39   -1.3      195.7   58.6   13.1  146.2   -6.1     0.7
 02 FEB  3  34:07:00:00     389    9.7      38   -0.3      195.7   58.7   13.1  146.2   -6.1     0.1
 02 FEB  3  34:08:00:00     388    9.9      38    0.4      195.7   58.8   13.0  146.2   -6.1   359.6
 02 FEB  3  34:09:00:00     381    9.6      37   -0.4      195.8   59.0   13.0  146.2   -6.1   359.0